createdAt,value
2018-07-09T00:00:59.546Z,16.10
2018-07-09T00:03:27.742Z,16.00
2018-07-09T00:05:55.941Z,16.00
2018-07-09T00:08:24.692Z,15.90
2018-07-09T00:11:07.577Z,15.80
2018-07-09T00:13:37.126Z,15.60
2018-07-09T00:16:05.794Z,15.60
2018-07-09T00:18:34.390Z,15.60
2018-07-09T00:21:03.798Z,15.60
2018-07-09T00:23:32.094Z,15.70
2018-07-09T00:26:00.955Z,15.80
2018-07-09T00:28:29.587Z,15.80
2018-07-09T00:30:57.845Z,15.80
2018-07-09T00:33:26.082Z,15.90
2018-07-09T00:35:54.576Z,15.70
2018-07-09T00:38:22.826Z,15.50
2018-07-09T00:40:51.054Z,15.30
2018-07-09T00:43:19.774Z,15.20
2018-07-09T00:45:48.022Z,15.20
2018-07-09T00:48:17.013Z,15.10
2018-07-09T00:50:45.953Z,15.00
2018-07-09T00:53:14.216Z,15.10
2018-07-09T00:55:42.865Z,15.10
2018-07-09T00:58:11.142Z,15.10
2018-07-09T01:00:39.414Z,15.00
2018-07-09T01:03:07.665Z,15.10
2018-07-09T01:05:35.870Z,15.30
2018-07-09T01:08:04.149Z,15.20
2018-07-09T01:10:33.110Z,15.30
2018-07-09T01:13:01.594Z,15.20
2018-07-09T01:15:29.836Z,15.20
2018-07-09T01:17:58.061Z,15.10
2018-07-09T01:20:27.375Z,15.00
2018-07-09T01:22:55.584Z,15.00
2018-07-09T01:25:25.415Z,15.00
2018-07-09T01:27:53.649Z,15.10
2018-07-09T01:30:21.880Z,15.10
2018-07-09T01:32:50.308Z,15.30
2018-07-09T01:35:19.879Z,15.20
2018-07-09T01:37:48.050Z,15.10
2018-07-09T01:40:17.061Z,15.10
2018-07-09T01:42:45.577Z,15.10
2018-07-09T01:45:13.924Z,15.20
2018-07-09T01:47:42.210Z,15.20
2018-07-09T01:50:11.108Z,15.10
2018-07-09T01:52:39.359Z,15.10
2018-07-09T01:55:07.580Z,15.00
2018-07-09T01:57:35.779Z,15.00
2018-07-09T02:00:04.873Z,15.00
2018-07-09T02:02:33.621Z,14.90
2018-07-09T02:05:02.662Z,14.90
2018-07-09T02:07:30.850Z,14.70
2018-07-09T02:09:59.078Z,14.70
2018-07-09T02:12:27.781Z,14.70
2018-07-09T02:14:56.011Z,14.80
2018-07-09T02:17:24.910Z,14.80
2018-07-09T02:19:53.393Z,14.80
2018-07-09T02:22:22.422Z,14.80
2018-07-09T02:24:51.022Z,14.80
2018-07-09T02:27:19.666Z,14.70
2018-07-09T02:29:48.463Z,14.60
2018-07-09T02:32:17.597Z,14.60
2018-07-09T02:34:45.844Z,14.60
2018-07-09T02:37:14.684Z,14.60
2018-07-09T02:39:42.876Z,14.50
2018-07-09T02:42:11.942Z,14.40
2018-07-09T02:44:40.967Z,14.30
2018-07-09T02:47:09.198Z,14.40
2018-07-09T02:49:38.665Z,14.50
2018-07-09T02:52:06.898Z,14.40
2018-07-09T02:54:35.434Z,14.40
2018-07-09T02:57:03.656Z,14.40
2018-07-09T02:59:32.473Z,14.30
2018-07-09T03:02:00.666Z,14.30
2018-07-09T03:04:28.882Z,14.30
2018-07-09T03:06:57.079Z,14.30
2018-07-09T03:09:25.301Z,14.20
2018-07-09T03:11:53.556Z,14.10
2018-07-09T03:14:21.819Z,14.10
2018-07-09T03:16:50.067Z,14.10
2018-07-09T03:19:18.324Z,14.10
2018-07-09T03:21:46.519Z,14.10
2018-07-09T03:24:15.569Z,14.10
2018-07-09T03:26:43.846Z,14.00
2018-07-09T03:29:12.052Z,13.90
2018-07-09T03:31:40.299Z,13.90
2018-07-09T03:34:08.922Z,13.90
2018-07-09T03:36:37.120Z,13.90
2018-07-09T03:39:06.041Z,13.90
2018-07-09T03:41:34.258Z,13.90
2018-07-09T03:44:02.482Z,13.80
2018-07-09T03:46:31.038Z,13.60
2018-07-09T03:48:59.854Z,13.60
2018-07-09T03:51:28.617Z,13.50
2018-07-09T03:53:56.818Z,13.60
2018-07-09T03:56:26.046Z,13.60
2018-07-09T03:58:54.389Z,13.60
2018-07-09T04:01:23.133Z,13.70
2018-07-09T04:03:51.334Z,13.80
2018-07-09T04:06:19.587Z,13.90
2018-07-09T04:08:48.114Z,14.00
2018-07-09T04:11:16.333Z,14.10
2018-07-09T04:13:44.542Z,14.10
2018-07-09T04:16:12.831Z,14.20
2018-07-09T04:18:41.379Z,14.40
2018-07-09T04:21:09.823Z,14.70
2018-07-09T04:23:38.097Z,15.00
2018-07-09T04:26:07.295Z,15.20
2018-07-09T04:28:35.841Z,15.50
2018-07-09T04:31:04.868Z,15.80
2018-07-09T04:33:33.939Z,15.90
2018-07-09T04:36:03.714Z,16.10
2018-07-09T04:38:31.980Z,16.10
2018-07-09T04:41:00.733Z,16.20
2018-07-09T04:43:28.953Z,16.20
2018-07-09T04:48:26.186Z,16.40
2018-07-09T04:50:54.402Z,16.50
2018-07-09T04:53:22.593Z,16.60
2018-07-09T04:55:51.698Z,16.70
2018-07-09T04:58:19.937Z,17.00
2018-07-09T05:00:48.210Z,17.00
2018-07-09T05:03:16.804Z,17.10
2018-07-09T05:05:45.067Z,17.20
2018-07-09T05:08:13.222Z,17.30
2018-07-09T05:10:41.434Z,17.60
2018-07-09T05:13:09.642Z,17.80
2018-07-09T05:15:37.834Z,18.00
2018-07-09T05:18:06.937Z,18.10
2018-07-09T05:20:35.199Z,18.20
2018-07-09T05:23:05.206Z,18.30
2018-07-09T05:25:33.996Z,18.60
2018-07-09T05:28:04.194Z,18.70
2018-07-09T05:30:33.210Z,19.00
2018-07-09T05:33:02.887Z,19.50
2018-07-09T05:35:31.198Z,20.00
2018-07-09T05:37:59.686Z,20.40
2018-07-09T05:40:29.205Z,20.70
2018-07-09T05:42:57.968Z,21.10
2018-07-09T05:45:26.209Z,21.50
2018-07-09T05:47:54.462Z,21.90
2018-07-09T05:50:22.631Z,22.10
2018-07-09T05:52:50.874Z,22.40
2018-07-09T05:55:19.097Z,22.40
2018-07-09T05:57:47.338Z,22.50
2018-07-09T06:00:16.394Z,22.50
2018-07-09T06:02:44.622Z,22.50
2018-07-09T06:05:12.856Z,22.90
2018-07-09T06:07:43.209Z,23.20
2018-07-09T06:10:12.013Z,23.30
2018-07-09T06:12:40.222Z,23.00
2018-07-09T06:15:10.404Z,23.10
2018-07-09T06:17:38.616Z,23.20
2018-07-09T06:20:07.602Z,23.20
2018-07-09T06:22:36.201Z,23.20
2018-07-09T06:25:04.474Z,23.30
2018-07-09T06:27:32.690Z,23.40
2018-07-09T06:30:01.037Z,23.60
2018-07-09T06:32:29.235Z,23.80
2018-07-09T06:34:57.515Z,24.00
2018-07-09T06:37:26.147Z,24.30
2018-07-09T06:39:54.396Z,24.60
2018-07-09T06:42:22.708Z,25.00
2018-07-09T06:44:52.199Z,25.30
2018-07-09T06:47:20.779Z,25.70
2018-07-09T06:49:49.251Z,26.10
2018-07-09T06:52:18.918Z,26.20
2018-07-09T06:54:47.109Z,25.40
2018-07-09T06:57:16.494Z,25.30
2018-07-09T06:59:45.639Z,25.50
2018-07-09T07:02:13.838Z,25.60
2018-07-09T07:04:43.993Z,26.00
2018-07-09T07:07:12.530Z,26.20
2018-07-09T07:09:41.903Z,25.90
2018-07-09T07:12:11.120Z,25.00
2018-07-09T07:14:39.349Z,24.60
2018-07-09T07:17:07.622Z,25.00
2018-07-09T07:19:36.812Z,25.20
2018-07-09T07:22:05.121Z,25.70
2018-07-09T07:24:33.970Z,25.90
2018-07-09T07:27:03.650Z,26.40
2018-07-09T07:29:31.907Z,26.20
2018-07-09T07:32:00.110Z,26.90
2018-07-09T07:34:28.437Z,27.10
2018-07-09T07:36:56.667Z,27.20
2018-07-09T07:39:25.966Z,27.00
2018-07-09T07:41:54.170Z,27.20
2018-07-09T07:44:24.317Z,27.90
2018-07-09T07:46:53.872Z,28.60
2018-07-09T07:49:22.717Z,29.30
2018-07-09T07:51:51.946Z,29.40
2018-07-09T07:54:20.304Z,29.10
2018-07-09T07:56:48.510Z,28.60
2018-07-09T07:59:17.542Z,28.90
2018-07-09T08:01:45.787Z,29.30
2018-07-09T08:04:15.936Z,29.80
2018-07-09T08:06:45.190Z,30.10
2018-07-09T08:09:14.380Z,30.30
2018-07-09T08:11:48.567Z,30.60
2018-07-09T08:14:11.299Z,31.00
2018-07-09T08:16:39.534Z,31.20
2018-07-09T08:19:07.835Z,31.10
2018-07-09T08:21:37.095Z,30.90
2018-07-09T08:24:05.612Z,30.90
2018-07-09T08:26:33.874Z,30.10
2018-07-09T08:29:02.725Z,29.90
2018-07-09T08:31:30.966Z,29.60
2018-07-09T08:33:59.433Z,29.90
2018-07-09T08:36:28.177Z,30.30
2018-07-09T08:38:56.525Z,30.80
2018-07-09T08:41:24.775Z,31.30
2018-07-09T08:43:53.217Z,31.80
2018-07-09T08:46:21.483Z,32.20
2018-07-09T08:48:50.003Z,32.10
2018-07-09T08:51:18.287Z,31.90
2018-07-09T08:53:46.531Z,31.70
2018-07-09T08:56:14.989Z,31.90
2018-07-09T08:58:43.221Z,32.30
2018-07-09T09:01:11.450Z,32.50
2018-07-09T09:03:39.702Z,32.30
2018-07-09T09:06:07.902Z,32.50
2018-07-09T09:08:40.609Z,32.80
2018-07-09T09:11:08.889Z,33.00
2018-07-09T09:13:38.833Z,31.50
2018-07-09T09:16:09.754Z,31.70
2018-07-09T09:18:37.986Z,31.90
2018-07-09T09:21:06.199Z,32.60
2018-07-09T09:23:34.474Z,32.90
2018-07-09T09:26:02.762Z,32.00
2018-07-09T09:28:30.960Z,31.60
2018-07-09T09:30:59.206Z,31.70
2018-07-09T09:33:28.039Z,31.50
2018-07-09T09:35:56.286Z,31.40
2018-07-09T09:38:24.526Z,30.30
2018-07-09T09:40:52.900Z,30.00
2018-07-09T09:43:21.246Z,29.70
2018-07-09T09:45:49.476Z,29.70
2018-07-09T09:48:18.209Z,29.80
2018-07-09T09:50:46.500Z,30.90
2018-07-09T09:53:15.549Z,32.10
2018-07-09T09:55:43.824Z,33.00
2018-07-09T09:58:16.019Z,33.10
2018-07-09T10:00:51.641Z,33.70
2018-07-09T10:03:20.462Z,33.30
2018-07-09T10:05:49.558Z,32.80
2018-07-09T10:08:17.805Z,32.80
2018-07-09T10:10:46.138Z,33.30
2018-07-09T10:13:14.361Z,33.60
2018-07-09T10:15:42.672Z,34.20
2018-07-09T10:18:11.351Z,34.50
2018-07-09T10:20:39.595Z,34.80
2018-07-09T10:23:07.977Z,35.20
2018-07-09T10:25:36.090Z,35.50
2018-07-09T10:28:04.302Z,35.50
2018-07-09T10:30:33.758Z,35.80
2018-07-09T10:33:03.092Z,35.60
2018-07-09T10:35:32.598Z,35.10
2018-07-09T10:38:00.874Z,33.90
2018-07-09T10:40:30.730Z,33.30
2018-07-09T10:42:58.971Z,31.80
2018-07-09T10:45:28.120Z,32.00
2018-07-09T10:47:57.067Z,32.50
2018-07-09T10:50:25.370Z,33.30
2018-07-09T10:52:56.614Z,33.10
2018-07-09T10:55:24.832Z,32.90
2018-07-09T10:57:53.939Z,32.10
2018-07-09T11:00:22.421Z,31.80
2018-07-09T11:02:50.654Z,32.10
2018-07-09T11:05:18.895Z,32.00
2018-07-09T11:07:47.843Z,31.70
2018-07-09T11:10:16.086Z,31.30
2018-07-09T11:12:44.342Z,32.00
2018-07-09T11:15:12.302Z,32.30
2018-07-09T11:17:41.025Z,33.00
2018-07-09T11:20:09.542Z,33.30
2018-07-09T11:22:37.820Z,34.30
2018-07-09T11:25:06.021Z,34.90
2018-07-09T11:27:34.274Z,35.30
2018-07-09T11:30:02.522Z,35.80
2018-07-09T11:32:30.850Z,36.30
2018-07-09T11:34:59.907Z,35.60
2018-07-09T11:37:28.542Z,33.80
2018-07-09T11:39:57.223Z,33.50
2018-07-09T11:42:26.004Z,34.50
2018-07-09T11:44:54.279Z,35.00
2018-07-09T11:47:22.549Z,35.30
2018-07-09T11:49:51.514Z,35.90
2018-07-09T11:52:19.751Z,36.30
2018-07-09T11:54:47.962Z,36.70
2018-07-09T11:57:16.171Z,36.90
2018-07-09T11:59:45.770Z,36.70
2018-07-09T12:02:14.075Z,36.70
2018-07-09T12:04:42.543Z,36.70
2018-07-09T12:07:11.726Z,36.70
2018-07-09T12:09:40.257Z,36.60
2018-07-09T12:12:08.550Z,37.00
2018-07-09T12:14:37.546Z,36.80
2018-07-09T12:17:05.991Z,37.10
2018-07-09T12:19:34.227Z,35.30
2018-07-09T12:22:06.655Z,35.20
2018-07-09T12:24:34.915Z,35.00
2018-07-09T12:27:03.883Z,33.80
2018-07-09T12:29:32.529Z,33.20
2018-07-09T12:32:00.749Z,33.30
2018-07-09T12:34:30.441Z,33.90
2018-07-09T12:36:58.738Z,34.10
2018-07-09T12:39:27.983Z,34.00
2018-07-09T12:41:56.321Z,34.00
2018-07-09T12:44:25.719Z,34.00
2018-07-09T12:46:54.263Z,32.80
2018-07-09T12:49:22.464Z,32.80
2018-07-09T12:51:50.968Z,31.80
2018-07-09T12:54:20.242Z,31.40
2018-07-09T12:56:48.464Z,30.70
2018-07-09T12:59:17.598Z,30.50
2018-07-09T13:01:46.220Z,30.70
2018-07-09T13:04:14.391Z,30.90
2018-07-09T13:06:43.485Z,31.10
2018-07-09T13:09:11.716Z,30.30
2018-07-09T13:11:41.338Z,30.30
2018-07-09T13:14:10.106Z,30.20
2018-07-09T13:16:38.386Z,30.70
2018-07-09T13:19:06.590Z,31.50
2018-07-09T13:21:34.862Z,32.20
2018-07-09T13:24:04.102Z,31.80
2018-07-09T13:26:32.362Z,31.60
2018-07-09T13:29:00.708Z,32.50
2018-07-09T13:31:29.512Z,33.50
2018-07-09T13:33:59.695Z,33.60
2018-07-09T13:36:28.181Z,34.20
2018-07-09T13:41:24.423Z,34.90
2018-07-09T13:43:52.825Z,35.20
2018-07-09T13:46:21.839Z,33.90
2018-07-09T13:48:50.091Z,32.40
2018-07-09T13:51:18.290Z,31.80
2018-07-09T13:53:47.064Z,31.40
2018-07-09T13:56:16.820Z,31.10
2018-07-09T13:58:45.082Z,31.00
2018-07-09T14:01:14.298Z,31.10
2018-07-09T14:03:42.514Z,31.10
2018-07-09T14:06:11.453Z,30.80
2018-07-09T14:08:39.746Z,30.60
2018-07-09T14:11:07.951Z,30.60
2018-07-09T14:13:36.130Z,29.60
2018-07-09T14:16:04.968Z,30.00
2018-07-09T14:18:34.414Z,30.30
2018-07-09T14:21:03.428Z,30.00
2018-07-09T14:23:32.120Z,29.80
2018-07-09T14:26:00.612Z,29.70
2018-07-09T14:28:30.977Z,29.90
2018-07-09T14:30:59.191Z,30.30
2018-07-09T14:33:27.432Z,30.00
2018-07-09T14:35:56.361Z,29.50
2018-07-09T14:38:24.618Z,30.20
2018-07-09T14:40:53.692Z,30.20
2018-07-09T14:43:22.208Z,29.40
2018-07-09T14:45:51.294Z,28.60
2018-07-09T14:48:20.151Z,28.10
2018-07-09T14:50:49.025Z,28.40
2018-07-09T14:53:17.226Z,28.50
2018-07-09T14:55:45.424Z,28.90
2018-07-09T14:58:13.622Z,28.80
2018-07-09T15:00:41.893Z,29.10
2018-07-09T15:03:10.082Z,29.50
2018-07-09T15:05:39.028Z,29.70
2018-07-09T15:08:07.302Z,28.80
2018-07-09T15:10:36.187Z,27.90
2018-07-09T15:13:04.519Z,27.60
2018-07-09T15:15:34.486Z,27.60
2018-07-09T15:18:03.743Z,28.10
2018-07-09T15:20:31.982Z,29.30
2018-07-09T15:23:00.573Z,28.00
2018-07-09T15:25:28.735Z,27.70
2018-07-09T15:27:57.521Z,27.30
2018-07-09T15:30:26.360Z,26.80
2018-07-09T15:32:54.599Z,27.10
2018-07-09T15:35:22.797Z,27.60
2018-07-09T15:37:51.601Z,27.90
2018-07-09T15:40:20.606Z,27.60
2018-07-09T15:42:48.834Z,27.70
2018-07-09T15:45:17.076Z,27.40
2018-07-09T15:47:45.310Z,27.00
2018-07-09T15:50:14.429Z,27.30
2018-07-09T15:52:43.611Z,27.10
2018-07-09T15:55:12.646Z,26.50
2018-07-09T15:57:40.855Z,27.00
2018-07-09T16:00:10.068Z,26.60
2018-07-09T16:02:38.305Z,26.20
2018-07-09T16:05:07.158Z,26.20
2018-07-09T16:07:35.358Z,26.60
2018-07-09T16:10:03.800Z,27.40
2018-07-09T16:12:32.002Z,27.90
2018-07-09T16:15:00.253Z,27.10
2018-07-09T16:17:29.913Z,26.30
2018-07-09T16:19:58.145Z,26.20
2018-07-09T16:22:26.371Z,26.40
2018-07-09T16:24:54.596Z,26.60
2018-07-09T16:27:23.334Z,26.20
2018-07-09T16:29:51.562Z,25.80
2018-07-09T16:32:19.768Z,25.70
2018-07-09T16:34:48.923Z,25.60
2018-07-09T16:37:17.157Z,25.50
2018-07-09T16:39:45.420Z,25.80
2018-07-09T16:42:15.727Z,26.10
2018-07-09T16:44:43.958Z,25.90
2018-07-09T16:47:13.202Z,25.20
2018-07-09T16:49:41.846Z,24.70
2018-07-09T16:52:10.110Z,24.50
2018-07-09T16:54:38.390Z,24.60
2018-07-09T16:57:07.623Z,24.60
2018-07-09T16:59:36.830Z,24.70
2018-07-09T17:04:34.122Z,24.20
2018-07-09T17:07:02.363Z,24.20
2018-07-09T17:09:31.042Z,24.20
2018-07-09T17:11:59.246Z,24.40
2018-07-09T17:14:27.454Z,24.40
2018-07-09T17:16:56.533Z,24.40
2018-07-09T17:19:25.789Z,24.10
2018-07-09T17:21:54.391Z,23.70
2018-07-09T17:24:22.736Z,23.40
2018-07-09T17:26:50.992Z,23.50
2018-07-09T17:29:21.165Z,23.50
2018-07-09T17:31:50.905Z,23.40
2018-07-09T17:34:19.606Z,23.50
2018-07-09T17:36:47.806Z,23.70
2018-07-09T17:39:16.040Z,24.10
2018-07-09T17:41:45.148Z,24.10
2018-07-09T17:44:13.882Z,24.00
2018-07-09T17:46:42.094Z,24.20
2018-07-09T17:49:10.309Z,24.30
2018-07-09T17:51:38.613Z,24.50
2018-07-09T17:54:06.930Z,24.60
2018-07-09T17:56:35.178Z,24.40
2018-07-09T17:59:03.394Z,24.20
2018-07-09T18:01:31.947Z,24.40
2018-07-09T18:04:01.057Z,24.30
2018-07-09T18:06:29.535Z,24.40
2018-07-09T18:08:57.777Z,24.40
2018-07-09T18:11:26.025Z,24.40
2018-07-09T18:13:54.764Z,24.20
2018-07-09T18:16:22.938Z,24.20
2018-07-09T18:18:51.428Z,24.00
2018-07-09T18:21:19.662Z,24.00
2018-07-09T18:23:48.214Z,24.00
2018-07-09T18:26:16.933Z,24.00
2018-07-09T18:28:45.122Z,23.90
2018-07-09T18:31:13.812Z,23.90
2018-07-09T18:33:42.134Z,23.80
2018-07-09T18:36:10.371Z,23.80
2018-07-09T18:38:39.606Z,23.70
2018-07-09T18:41:07.791Z,23.60
2018-07-09T18:43:36.050Z,23.50
2018-07-09T18:46:04.963Z,23.50
2018-07-09T18:48:35.524Z,23.40
2018-07-09T18:51:03.819Z,23.30
2018-07-09T18:53:32.102Z,23.20
2018-07-09T18:56:00.704Z,23.20
2018-07-09T18:58:29.379Z,23.00
2018-07-09T19:00:57.615Z,22.90
2018-07-09T19:03:25.890Z,22.80
2018-07-09T19:07:05.215Z,22.70
2018-07-09T19:09:35.558Z,22.50
2018-07-09T19:12:05.813Z,22.20
2018-07-09T19:14:39.311Z,22.00
2018-07-09T19:18:23.894Z,21.90
2018-07-09T19:21:31.599Z,21.90
2018-07-09T19:23:59.138Z,21.80
2018-07-09T19:26:26.513Z,21.60
2018-07-09T19:28:53.779Z,21.50
2018-07-09T19:31:22.043Z,21.40
2018-07-09T19:33:49.256Z,21.50
2018-07-09T19:36:17.170Z,21.60
2018-07-09T19:38:44.402Z,21.60
2018-07-09T19:41:11.651Z,21.50
2018-07-09T19:43:39.117Z,21.40
2018-07-09T19:46:06.738Z,21.30
2018-07-09T19:48:33.885Z,21.20
2018-07-09T19:51:01.879Z,21.10
2018-07-09T19:53:29.071Z,21.10
2018-07-09T19:55:56.622Z,21.00
2018-07-09T19:58:23.815Z,21.00
2018-07-09T20:00:51.409Z,21.00
2018-07-09T20:03:19.137Z,20.90
2018-07-09T20:05:46.977Z,20.90
2018-07-09T20:08:14.192Z,20.80
2018-07-09T20:10:46.778Z,20.80
2018-07-09T20:13:19.866Z,20.70
2018-07-09T20:15:53.191Z,20.60
2018-07-09T20:18:20.441Z,20.60
2018-07-09T20:20:47.657Z,20.60
2018-07-09T20:23:16.167Z,20.60
2018-07-09T20:25:43.764Z,20.50
2018-07-09T20:28:11.006Z,20.40
2018-07-09T20:30:38.201Z,20.30
2018-07-09T20:33:05.429Z,20.40
2018-07-09T20:35:32.662Z,20.40
2018-07-09T20:37:59.878Z,20.30
2018-07-09T20:40:27.061Z,20.30
2018-07-09T20:42:54.309Z,20.20
2018-07-09T20:45:21.551Z,20.20
2018-07-09T20:47:49.483Z,20.20
2018-07-09T20:50:16.674Z,20.10
2018-07-09T20:52:43.901Z,20.10
2018-07-09T20:55:11.133Z,20.10
2018-07-09T20:57:38.386Z,20.10
2018-07-09T21:00:05.611Z,20.00
2018-07-09T21:02:32.864Z,20.00
2018-07-09T21:05:00.078Z,19.90
2018-07-09T21:07:27.289Z,19.90
2018-07-09T21:09:54.502Z,19.80
2018-07-09T21:12:21.694Z,19.80
2018-07-09T21:14:48.924Z,19.70
2018-07-09T21:17:16.174Z,19.70
2018-07-09T21:19:43.426Z,19.70
2018-07-09T21:22:10.702Z,19.70
2018-07-09T21:24:37.854Z,19.70
2018-07-09T21:27:05.062Z,19.70
2018-07-09T21:32:00.627Z,19.70
2018-07-09T21:34:27.834Z,19.60
2018-07-09T21:36:55.069Z,19.60
2018-07-09T21:39:22.289Z,19.60
2018-07-09T21:41:49.517Z,19.50
2018-07-09T21:44:16.710Z,19.50
2018-07-09T21:46:43.902Z,19.50
2018-07-09T21:49:11.131Z,19.40
2018-07-09T21:51:38.390Z,19.50
2018-07-09T21:54:05.595Z,19.40
2018-07-09T21:56:32.870Z,19.40
2018-07-09T21:59:00.853Z,19.30
2018-07-09T22:01:28.802Z,19.20
2018-07-09T22:03:56.043Z,19.20
2018-07-09T22:06:23.219Z,19.20
2018-07-09T22:08:50.469Z,19.20
2018-07-09T22:11:18.307Z,19.20
2018-07-09T22:13:45.508Z,19.20
2018-07-09T22:16:12.727Z,19.00
2018-07-09T22:18:40.463Z,18.90
2018-07-09T22:21:07.653Z,18.90
2018-07-09T22:23:36.122Z,18.90
2018-07-09T22:26:03.610Z,18.90
2018-07-09T22:28:31.720Z,18.90
2018-07-09T22:30:59.933Z,18.80
2018-07-09T22:33:28.133Z,18.80
2018-07-09T22:35:56.307Z,18.80
2018-07-09T22:38:24.518Z,18.80
2018-07-09T22:40:52.748Z,18.80
2018-07-09T22:43:32.463Z,18.80
2018-07-09T22:46:01.931Z,18.80
2018-07-09T22:48:30.174Z,18.70
2018-07-09T22:50:58.629Z,18.70
2018-07-09T22:53:26.822Z,18.70
2018-07-09T22:56:05.424Z,18.70
2018-07-09T22:58:33.647Z,18.70
2018-07-09T23:01:03.101Z,18.70
2018-07-09T23:03:31.693Z,18.70
2018-07-09T23:05:59.935Z,18.70
2018-07-09T23:08:28.321Z,18.80
2018-07-09T23:13:13.987Z,18.80
2018-07-09T23:16:57.382Z,18.70
2018-07-09T23:22:20.405Z,18.70
2018-07-09T23:24:47.586Z,18.70
2018-07-09T23:27:14.845Z,18.70
2018-07-09T23:29:42.054Z,18.70
2018-07-09T23:32:10.206Z,18.80
2018-07-09T23:34:37.430Z,18.80
2018-07-09T23:37:04.653Z,18.90
2018-07-09T23:39:32.974Z,18.90
2018-07-09T23:42:00.239Z,18.90
2018-07-09T23:44:27.397Z,18.90
2018-07-09T23:49:22.445Z,18.70
2018-07-09T23:51:49.669Z,18.70
2018-07-09T23:54:16.875Z,18.60
2018-07-09T23:57:00.665Z,18.50
